sensor_id;sensor_type;location;lat;lon;timestamp;pressure;altitude;pressure_sealevel;temperature;humidity
73316;BME280;61545;53.726;-0.444;2022-10-31T00:01:10;1010.8;;;10.6;100.0
73316;BME280;61545;53.726;-0.444;2022-10-31T00:06:08;1010.8;;;10.7;100.0
73316;BME280;61545;53.726;-0.444;2022-10-31T00:11:08;1010.9;;;10.7;100.0
73316;BME280;61545;53.726;-0.444;2022-10-31T00:16:13;1010.8;;;10.5;100.0
73316;BME280;61545;53.726;-0.444;2022-10-31T00:21:08;1010.9;;;10.5;100.0
73316;BME280;61545;53.726;-0.444;2022-10-31T00:26:08;1010.9;;;10.6;100.0
73316;BME280;61545;53.726;-0.444;2022-10-31T00:31:09;1010.9;;;10.6;100.0
73316;BME280;61545;53.726;-0.444;2022-10-31T00:36:10;1011.0;;;10.6;100.0
73316;BME280;61545;53.726;-0.444;2022-10-31T00:41:08;1011.0;;;10.6;100.0
73316;BME280;61545;53.726;-0.444;2022-10-31T00:46:08;1011.0;;;10.6;100.0
73316;BME280;61545;53.726;-0.444;2022-10-31T00:51:09;1011.0;;;10.5;100.0
73316;BME280;61545;53.726;-0.444;2022-10-31T00:56:08;1011.0;;;10.6;100.0
73316;BME280;61545;53.726;-0.444;2022-10-31T01:01:08;1011.0;;;10.6;100.0
73316;BME280;61545;53.726;-0.444;2022-10-31T01:06:09;1011.0;;;10.6;100.0
73316;BME280;61545;53.726;-0.444;2022-10-31T01:11:10;1011.0;;;10.6;100.0
73316;BME280;61545;53.726;-0.444;2022-10-31T01:16:10;1011.1;;;10.6;100.0
73316;BME280;61545;53.726;-0.444;2022-10-31T01:21:09;1011.1;;;10.6;100.0
73316;BME280;61545;53.726;-0.444;2022-10-31T01:26:12;1011.0;;;10.5;100.0
73316;BME280;61545;53.726;-0.444;2022-10-31T01:31:09;1011.1;;;10.5;100.0
73316;BME280;61545;53.726;-0.444;2022-10-31T01:36:14;1011.1;;;10.6;100.0
73316;BME280;61545;53.726;-0.444;2022-10-31T01:41:09;1011.1;;;10.5;100.0
73316;BME280;61545;53.726;-0.444;2022-10-31T01:46:08;1011.2;;;10.5;100.0
73316;BME280;61545;53.726;-0.444;2022-10-31T01:51:08;1011.1;;;10.5;100.0
73316;BME280;61545;53.726;-0.444;2022-10-31T01:56:08;1011.1;;;10.5;100.0
73316;BME280;61545;53.726;-0.444;2022-10-31T02:01:08;1011.2;;;10.5;100.0
73316;BME280;61545;53.726;-0.444;2022-10-31T02:06:16;1011.2;;;10.5;100.0
73316;BME280;61545;53.726;-0.444;2022-10-31T02:11:08;1011.3;;;10.6;100.0
73316;BME280;61545;53.726;-0.444;2022-10-31T02:16:09;1011.3;;;10.6;100.0
73316;BME280;61545;53.726;-0.444;2022-10-31T02:21:12;1011.3;;;10.6;100.0
73316;BME280;61545;53.726;-0.444;2022-10-31T02:26:22;1011.3;;;10.6;100.0
73316;BME280;61545;53.726;-0.444;2022-10-31T02:31:16;1011.3;;;10.6;100.0
73316;BME280;61545;53.726;-0.444;2022-10-31T02:36:11;1011.4;;;10.5;100.0
73316;BME280;61545;53.726;-0.444;2022-10-31T02:41:10;1011.3;;;10.5;100.0
73316;BME280;61545;53.726;-0.444;2022-10-31T02:46:11;1011.4;;;10.6;100.0
73316;BME280;61545;53.726;-0.444;2022-10-31T02:51:08;1011.3;;;10.6;100.0
73316;BME280;61545;53.726;-0.444;2022-10-31T02:56:11;1011.5;;;10.5;100.0
73316;BME280;61545;53.726;-0.444;2022-10-31T03:01:45;1011.4;;;10.6;100.0
73316;BME280;61545;53.726;-0.444;2022-10-31T03:06:10;1011.4;;;10.5;100.0
73316;BME280;61545;53.726;-0.444;2022-10-31T03:11:08;1011.5;;;10.5;100.0
73316;BME280;61545;53.726;-0.444;2022-10-31T03:16:10;1011.5;;;10.6;100.0
73316;BME280;61545;53.726;-0.444;2022-10-31T03:21:10;1011.4;;;10.4;100.0
73316;BME280;61545;53.726;-0.444;2022-10-31T03:26:09;1011.4;;;10.5;100.0
73316;BME280;61545;53.726;-0.444;2022-10-31T03:31:08;1011.4;;;10.5;100.0
73316;BME280;61545;53.726;-0.444;2022-10-31T03:36:09;1011.4;;;10.5;100.0
73316;BME280;61545;53.726;-0.444;2022-10-31T03:41:11;1011.3;;;10.4;100.0
73316;BME280;61545;53.726;-0.444;2022-10-31T03:46:08;1011.4;;;10.5;100.0
73316;BME280;61545;53.726;-0.444;2022-10-31T03:51:11;1011.3;;;10.6;100.0
73316;BME280;61545;53.726;-0.444;2022-10-31T03:56:10;1011.2;;;10.5;100.0
73316;BME280;61545;53.726;-0.444;2022-10-31T04:01:09;1011.2;;;10.7;100.0
73316;BME280;61545;53.726;-0.444;2022-10-31T04:06:09;1011.1;;;10.7;100.0
73316;BME280;61545;53.726;-0.444;2022-10-31T04:11:08;1011.1;;;10.7;100.0
73316;BME280;61545;53.726;-0.444;2022-10-31T04:16:08;1011.0;;;10.5;100.0
73316;BME280;61545;53.726;-0.444;2022-10-31T04:21:08;1011.0;;;10.5;100.0
73316;BME280;61545;53.726;-0.444;2022-10-31T04:26:10;1011.0;;;10.5;100.0
73316;BME280;61545;53.726;-0.444;2022-10-31T04:31:08;1011.0;;;10.4;100.0
73316;BME280;61545;53.726;-0.444;2022-10-31T04:36:08;1011.1;;;10.5;100.0
73316;BME280;61545;53.726;-0.444;2022-10-31T04:41:08;1011.0;;;10.4;100.0
73316;BME280;61545;53.726;-0.444;2022-10-31T04:46:08;1011.0;;;10.5;100.0
73316;BME280;61545;53.726;-0.444;2022-10-31T04:51:08;1011.0;;;10.4;100.0
73316;BME280;61545;53.726;-0.444;2022-10-31T04:56:08;1010.9;;;10.5;100.0
73316;BME280;61545;53.726;-0.444;2022-10-31T05:01:08;1010.8;;;10.5;100.0
73316;BME280;61545;53.726;-0.444;2022-10-31T05:06:08;1010.9;;;10.5;100.0
73316;BME280;61545;53.726;-0.444;2022-10-31T05:11:08;1011.0;;;10.5;100.0
73316;BME280;61545;53.726;-0.444;2022-10-31T05:16:08;1011.0;;;10.6;100.0
73316;BME280;61545;53.726;-0.444;2022-10-31T05:21:08;1011.0;;;10.7;100.0
73316;BME280;61545;53.726;-0.444;2022-10-31T05:26:08;1010.9;;;10.7;100.0
73316;BME280;61545;53.726;-0.444;2022-10-31T05:31:08;1010.9;;;10.7;100.0
73316;BME280;61545;53.726;-0.444;2022-10-31T05:36:08;1010.9;;;10.6;100.0
73316;BME280;61545;53.726;-0.444;2022-10-31T05:41:08;1010.9;;;10.6;100.0
73316;BME280;61545;53.726;-0.444;2022-10-31T05:46:08;1010.8;;;10.6;100.0
73316;BME280;61545;53.726;-0.444;2022-10-31T05:51:08;1010.7;;;10.6;100.0
73316;BME280;61545;53.726;-0.444;2022-10-31T05:56:08;1010.7;;;10.6;100.0
73316;BME280;61545;53.726;-0.444;2022-10-31T06:01:08;1010.7;;;10.6;100.0
73316;BME280;61545;53.726;-0.444;2022-10-31T06:06:08;1010.7;;;10.6;100.0
73316;BME280;61545;53.726;-0.444;2022-10-31T06:11:08;1010.5;;;10.6;100.0
73316;BME280;61545;53.726;-0.444;2022-10-31T06:16:08;1010.5;;;10.6;100.0
73316;BME280;61545;53.726;-0.444;2022-10-31T06:21:08;1010.6;;;10.6;100.0
73316;BME280;61545;53.726;-0.444;2022-10-31T06:26:08;1010.5;;;10.6;100.0
73316;BME280;61545;53.726;-0.444;2022-10-31T06:31:08;1010.5;;;10.7;100.0
73316;BME280;61545;53.726;-0.444;2022-10-31T06:36:09;1010.5;;;10.7;100.0
73316;BME280;61545;53.726;-0.444;2022-10-31T06:41:08;1010.5;;;10.6;100.0
73316;BME280;61545;53.726;-0.444;2022-10-31T06:46:08;1010.5;;;10.5;100.0
73316;BME280;61545;53.726;-0.444;2022-10-31T06:51:09;1010.5;;;10.5;100.0
73316;BME280;61545;53.726;-0.444;2022-10-31T06:56:08;1010.6;;;10.4;100.0
73316;BME280;61545;53.726;-0.444;2022-10-31T07:01:08;1010.6;;;10.4;100.0
73316;BME280;61545;53.726;-0.444;2022-10-31T07:06:08;1010.6;;;10.4;100.0
73316;BME280;61545;53.726;-0.444;2022-10-31T07:11:08;1010.7;;;10.5;100.0
73316;BME280;61545;53.726;-0.444;2022-10-31T07:16:08;1010.7;;;10.4;100.0
73316;BME280;61545;53.726;-0.444;2022-10-31T07:21:08;1010.7;;;10.5;100.0
73316;BME280;61545;53.726;-0.444;2022-10-31T07:26:09;1010.7;;;10.5;100.0
73316;BME280;61545;53.726;-0.444;2022-10-31T07:31:08;1010.8;;;10.5;100.0
73316;BME280;61545;53.726;-0.444;2022-10-31T07:36:08;1010.7;;;10.5;100.0
73316;BME280;61545;53.726;-0.444;2022-10-31T07:41:08;1010.7;;;10.5;100.0
73316;BME280;61545;53.726;-0.444;2022-10-31T07:46:08;1010.7;;;10.6;100.0
73316;BME280;61545;53.726;-0.444;2022-10-31T07:51:08;1010.7;;;10.6;100.0
73316;BME280;61545;53.726;-0.444;2022-10-31T07:56:08;1010.7;;;10.7;100.0
73316;BME280;61545;53.726;-0.444;2022-10-31T08:01:08;1010.7;;;10.7;100.0
73316;BME280;61545;53.726;-0.444;2022-10-31T08:06:08;1010.7;;;10.9;100.0
73316;BME280;61545;53.726;-0.444;2022-10-31T08:11:08;1010.8;;;10.9;100.0
73316;BME280;61545;53.726;-0.444;2022-10-31T08:16:08;1010.8;;;10.9;100.0
73316;BME280;61545;53.726;-0.444;2022-10-31T08:21:08;1010.7;;;10.9;100.0
73316;BME280;61545;53.726;-0.444;2022-10-31T08:26:08;1010.8;;;11.0;100.0
73316;BME280;61545;53.726;-0.444;2022-10-31T08:31:08;1010.8;;;11.2;100.0
73316;BME280;61545;53.726;-0.444;2022-10-31T08:36:08;1010.8;;;11.1;100.0
73316;BME280;61545;53.726;-0.444;2022-10-31T08:41:08;1010.9;;;11.1;100.0
73316;BME280;61545;53.726;-0.444;2022-10-31T08:46:08;1010.9;;;11.1;100.0
73316;BME280;61545;53.726;-0.444;2022-10-31T08:51:09;1010.8;;;11.2;100.0
73316;BME280;61545;53.726;-0.444;2022-10-31T08:56:08;1010.7;;;11.3;100.0
73316;BME280;61545;53.726;-0.444;2022-10-31T09:01:08;1010.8;;;11.2;100.0
73316;BME280;61545;53.726;-0.444;2022-10-31T09:06:08;1010.8;;;11.3;100.0
73316;BME280;61545;53.726;-0.444;2022-10-31T09:11:08;1010.8;;;11.4;100.0
73316;BME280;61545;53.726;-0.444;2022-10-31T09:16:08;1010.7;;;11.4;100.0
73316;BME280;61545;53.726;-0.444;2022-10-31T09:21:08;1010.7;;;11.4;100.0
73316;BME280;61545;53.726;-0.444;2022-10-31T09:26:08;1010.6;;;11.4;100.0
73316;BME280;61545;53.726;-0.444;2022-10-31T09:31:08;1010.6;;;11.6;100.0
73316;BME280;61545;53.726;-0.444;2022-10-31T09:36:08;1010.6;;;11.5;100.0
73316;BME280;61545;53.726;-0.444;2022-10-31T09:41:16;1010.6;;;11.6;100.0
73316;BME280;61545;53.726;-0.444;2022-10-31T09:46:11;1010.6;;;11.5;100.0
73316;BME280;61545;53.726;-0.444;2022-10-31T09:51:10;1010.6;;;11.7;100.0
73316;BME280;61545;53.726;-0.444;2022-10-31T09:56:10;1010.5;;;11.7;100.0
73316;BME280;61545;53.726;-0.444;2022-10-31T10:01:17;1010.6;;;11.6;100.0
73316;BME280;61545;53.726;-0.444;2022-10-31T10:06:18;1010.6;;;11.6;100.0
73316;BME280;61545;53.726;-0.444;2022-10-31T10:11:20;1010.5;;;11.6;100.0
73316;BME280;61545;53.726;-0.444;2022-10-31T10:16:15;1010.5;;;11.7;100.0
73316;BME280;61545;53.726;-0.444;2022-10-31T10:21:16;1010.5;;;11.9;100.0
73316;BME280;61545;53.726;-0.444;2022-10-31T10:26:13;1010.5;;;12.4;100.0
73316;BME280;61545;53.726;-0.444;2022-10-31T10:31:11;1010.4;;;12.5;100.0
73316;BME280;61545;53.726;-0.444;2022-10-31T10:36:11;1010.4;;;12.4;100.0
73316;BME280;61545;53.726;-0.444;2022-10-31T10:41:11;1010.4;;;12.5;100.0
73316;BME280;61545;53.726;-0.444;2022-10-31T10:46:16;1010.4;;;12.5;100.0
73316;BME280;61545;53.726;-0.444;2022-10-31T10:51:15;1010.4;;;12.5;100.0
73316;BME280;61545;53.726;-0.444;2022-10-31T10:56:11;1010.4;;;12.5;100.0
73316;BME280;61545;53.726;-0.444;2022-10-31T11:01:10;1010.2;;;12.5;100.0
73316;BME280;61545;53.726;-0.444;2022-10-31T11:06:18;1010.2;;;12.5;100.0
73316;BME280;61545;53.726;-0.444;2022-10-31T11:11:13;1010.2;;;12.6;100.0
73316;BME280;61545;53.726;-0.444;2022-10-31T11:16:10;1010.1;;;12.7;100.0
73316;BME280;61545;53.726;-0.444;2022-10-31T11:21:20;1010.0;;;12.7;100.0
73316;BME280;61545;53.726;-0.444;2022-10-31T11:26:18;1010.0;;;12.7;100.0
73316;BME280;61545;53.726;-0.444;2022-10-31T11:31:12;1009.9;;;12.7;100.0
73316;BME280;61545;53.726;-0.444;2022-10-31T11:36:14;1009.8;;;12.9;100.0
73316;BME280;61545;53.726;-0.444;2022-10-31T11:41:11;1009.8;;;12.9;100.0
73316;BME280;61545;53.726;-0.444;2022-10-31T11:46:10;1009.7;;;12.9;100.0
73316;BME280;61545;53.726;-0.444;2022-10-31T11:51:08;1009.6;;;12.9;100.0
73316;BME280;61545;53.726;-0.444;2022-10-31T11:56:12;1009.6;;;12.9;100.0
73316;BME280;61545;53.726;-0.444;2022-10-31T12:01:22;1009.5;;;12.8;100.0
73316;BME280;61545;53.726;-0.444;2022-10-31T12:06:10;1009.5;;;12.9;100.0
73316;BME280;61545;53.726;-0.444;2022-10-31T12:11:14;1009.4;;;12.8;100.0
73316;BME280;61545;53.726;-0.444;2022-10-31T12:16:12;1009.2;;;12.9;100.0
73316;BME280;61545;53.726;-0.444;2022-10-31T12:21:19;1009.1;;;13.3;100.0
73316;BME280;61545;53.726;-0.444;2022-10-31T12:26:14;1009.0;;;13.2;100.0
73316;BME280;61545;53.726;-0.444;2022-10-31T12:31:16;1009.0;;;13.5;100.0
73316;BME280;61545;53.726;-0.444;2022-10-31T12:36:18;1009.0;;;13.7;100.0
73316;BME280;61545;53.726;-0.444;2022-10-31T12:41:20;1008.9;;;13.5;100.0
73316;BME280;61545;53.726;-0.444;2022-10-31T12:46:10;1008.7;;;13.7;100.0
73316;BME280;61545;53.726;-0.444;2022-10-31T12:51:11;1008.6;;;13.6;100.0
73316;BME280;61545;53.726;-0.444;2022-10-31T12:56:17;1008.5;;;13.6;100.0
73316;BME280;61545;53.726;-0.444;2022-10-31T13:01:10;1008.4;;;14.2;100.0
73316;BME280;61545;53.726;-0.444;2022-10-31T13:06:11;1008.3;;;14.2;100.0
73316;BME280;61545;53.726;-0.444;2022-10-31T13:11:10;1008.3;;;14.0;100.0
73316;BME280;61545;53.726;-0.444;2022-10-31T13:16:12;1008.2;;;13.9;100.0
73316;BME280;61545;53.726;-0.444;2022-10-31T13:21:11;1008.2;;;13.9;100.0
73316;BME280;61545;53.726;-0.444;2022-10-31T13:26:11;1008.1;;;13.8;100.0
73316;BME280;61545;53.726;-0.444;2022-10-31T13:31:09;1008.0;;;13.6;100.0
73316;BME280;61545;53.726;-0.444;2022-10-31T13:36:16;1008.0;;;13.7;100.0
73316;BME280;61545;53.726;-0.444;2022-10-31T13:41:12;1008.0;;;13.5;100.0
73316;BME280;61545;53.726;-0.444;2022-10-31T13:46:21;1007.9;;;13.5;100.0
73316;BME280;61545;53.726;-0.444;2022-10-31T13:51:10;1007.8;;;13.3;100.0
73316;BME280;61545;53.726;-0.444;2022-10-31T13:56:15;1007.7;;;13.3;100.0
73316;BME280;61545;53.726;-0.444;2022-10-31T14:01:15;1007.7;;;13.3;100.0
73316;BME280;61545;53.726;-0.444;2022-10-31T14:06:09;1007.6;;;13.4;100.0
73316;BME280;61545;53.726;-0.444;2022-10-31T14:11:09;1007.4;;;13.4;100.0
73316;BME280;61545;53.726;-0.444;2022-10-31T14:16:17;1007.3;;;13.4;100.0
73316;BME280;61545;53.726;-0.444;2022-10-31T14:21:25;1007.2;;;13.4;100.0
73316;BME280;61545;53.726;-0.444;2022-10-31T14:26:20;1007.1;;;13.4;100.0
73316;BME280;61545;53.726;-0.444;2022-10-31T14:31:26;1007.2;;;13.5;100.0
73316;BME280;61545;53.726;-0.444;2022-10-31T14:36:10;1007.0;;;13.5;100.0
73316;BME280;61545;53.726;-0.444;2022-10-31T14:41:25;1007.0;;;13.5;100.0
73316;BME280;61545;53.726;-0.444;2022-10-31T14:46:12;1007.0;;;13.4;100.0
73316;BME280;61545;53.726;-0.444;2022-10-31T14:51:10;1006.9;;;13.5;100.0
73316;BME280;61545;53.726;-0.444;2022-10-31T14:56:11;1006.9;;;13.5;100.0
73316;BME280;61545;53.726;-0.444;2022-10-31T15:01:17;1006.9;;;13.4;100.0
73316;BME280;61545;53.726;-0.444;2022-10-31T15:06:10;1006.8;;;13.4;100.0
73316;BME280;61545;53.726;-0.444;2022-10-31T15:11:09;1006.8;;;13.4;100.0
73316;BME280;61545;53.726;-0.444;2022-10-31T15:16:09;1006.7;;;13.4;100.0
73316;BME280;61545;53.726;-0.444;2022-10-31T15:21:09;1006.5;;;13.3;100.0
73316;BME280;61545;53.726;-0.444;2022-10-31T15:26:15;1006.5;;;13.2;100.0
73316;BME280;61545;53.726;-0.444;2022-10-31T15:31:13;1006.3;;;13.2;100.0
73316;BME280;61545;53.726;-0.444;2022-10-31T15:36:18;1006.2;;;13.1;100.0
73316;BME280;61545;53.726;-0.444;2022-10-31T15:41:21;1006.2;;;13.0;100.0
73316;BME280;61545;53.726;-0.444;2022-10-31T15:46:09;1006.2;;;13.0;100.0
73316;BME280;61545;53.726;-0.444;2022-10-31T15:51:09;1006.1;;;12.9;100.0
73316;BME280;61545;53.726;-0.444;2022-10-31T15:56:12;1006.2;;;12.9;100.0
73316;BME280;61545;53.726;-0.444;2022-10-31T16:01:19;1006.2;;;12.9;100.0
73316;BME280;61545;53.726;-0.444;2022-10-31T16:06:18;1006.1;;;12.9;100.0
73316;BME280;61545;53.726;-0.444;2022-10-31T16:11:20;1005.9;;;12.9;100.0
73316;BME280;61545;53.726;-0.444;2022-10-31T16:16:11;1005.9;;;12.8;100.0
73316;BME280;61545;53.726;-0.444;2022-10-31T16:21:09;1005.9;;;12.7;100.0
73316;BME280;61545;53.726;-0.444;2022-10-31T16:26:09;1005.7;;;12.7;100.0
73316;BME280;61545;53.726;-0.444;2022-10-31T16:31:13;1005.7;;;12.5;100.0
73316;BME280;61545;53.726;-0.444;2022-10-31T16:36:39;1005.5;;;12.4;100.0
73316;BME280;61545;53.726;-0.444;2022-10-31T16:41:09;1005.4;;;12.2;100.0
73316;BME280;61545;53.726;-0.444;2022-10-31T16:46:10;1005.3;;;12.2;100.0
73316;BME280;61545;53.726;-0.444;2022-10-31T16:51:09;1005.2;;;12.2;100.0
73316;BME280;61545;53.726;-0.444;2022-10-31T16:56:14;1005.2;;;12.0;100.0
73316;BME280;61545;53.726;-0.444;2022-10-31T17:01:09;1005.2;;;12.0;100.0
73316;BME280;61545;53.726;-0.444;2022-10-31T17:06:10;1005.0;;;11.9;100.0
73316;BME280;61545;53.726;-0.444;2022-10-31T17:11:13;1005.0;;;11.9;100.0
73316;BME280;61545;53.726;-0.444;2022-10-31T17:16:09;1004.9;;;11.9;100.0
73316;BME280;61545;53.726;-0.444;2022-10-31T17:21:11;1004.8;;;11.8;100.0
73316;BME280;61545;53.726;-0.444;2022-10-31T17:26:09;1004.9;;;11.9;100.0
73316;BME280;61545;53.726;-0.444;2022-10-31T17:31:13;1004.7;;;11.9;100.0
73316;BME280;61545;53.726;-0.444;2022-10-31T17:36:09;1004.5;;;11.9;100.0
73316;BME280;61545;53.726;-0.444;2022-10-31T17:41:09;1004.4;;;11.8;100.0
73316;BME280;61545;53.726;-0.444;2022-10-31T17:46:09;1004.4;;;11.8;100.0
73316;BME280;61545;53.726;-0.444;2022-10-31T17:51:09;1004.3;;;11.8;100.0
73316;BME280;61545;53.726;-0.444;2022-10-31T17:56:09;1004.1;;;11.9;100.0
73316;BME280;61545;53.726;-0.444;2022-10-31T18:01:10;1003.8;;;11.9;100.0
73316;BME280;61545;53.726;-0.444;2022-10-31T18:06:09;1003.8;;;11.9;100.0
73316;BME280;61545;53.726;-0.444;2022-10-31T18:11:10;1003.8;;;11.9;100.0
73316;BME280;61545;53.726;-0.444;2022-10-31T18:16:09;1003.7;;;11.9;100.0
73316;BME280;61545;53.726;-0.444;2022-10-31T18:21:09;1003.5;;;11.9;100.0
73316;BME280;61545;53.726;-0.444;2022-10-31T18:26:09;1003.3;;;12.0;100.0
73316;BME280;61545;53.726;-0.444;2022-10-31T18:31:09;1003.3;;;12.0;100.0
73316;BME280;61545;53.726;-0.444;2022-10-31T18:36:09;1003.2;;;12.0;100.0
73316;BME280;61545;53.726;-0.444;2022-10-31T18:41:09;1003.1;;;12.1;100.0
73316;BME280;61545;53.726;-0.444;2022-10-31T18:46:11;1003.1;;;12.2;100.0
73316;BME280;61545;53.726;-0.444;2022-10-31T18:51:10;1003.0;;;12.2;100.0
73316;BME280;61545;53.726;-0.444;2022-10-31T18:56:09;1002.9;;;12.4;100.0
73316;BME280;61545;53.726;-0.444;2022-10-31T19:01:09;1002.8;;;12.4;100.0
73316;BME280;61545;53.726;-0.444;2022-10-31T19:06:09;1002.7;;;12.4;100.0
73316;BME280;61545;53.726;-0.444;2022-10-31T19:11:10;1002.5;;;12.3;100.0
73316;BME280;61545;53.726;-0.444;2022-10-31T19:16:10;1002.4;;;12.4;100.0
73316;BME280;61545;53.726;-0.444;2022-10-31T19:21:10;1002.2;;;12.3;100.0
73316;BME280;61545;53.726;-0.444;2022-10-31T19:26:09;1002.1;;;12.3;100.0
73316;BME280;61545;53.726;-0.444;2022-10-31T19:31:09;1002.0;;;12.4;100.0
73316;BME280;61545;53.726;-0.444;2022-10-31T19:36:10;1001.6;;;12.4;100.0
73316;BME280;61545;53.726;-0.444;2022-10-31T19:41:10;1001.7;;;12.4;100.0
73316;BME280;61545;53.726;-0.444;2022-10-31T19:46:09;1001.4;;;12.4;100.0
73316;BME280;61545;53.726;-0.444;2022-10-31T19:51:10;1001.2;;;12.4;100.0
73316;BME280;61545;53.726;-0.444;2022-10-31T19:56:10;1001.1;;;12.4;100.0
73316;BME280;61545;53.726;-0.444;2022-10-31T20:01:09;1001.4;;;12.4;100.0
73316;BME280;61545;53.726;-0.444;2022-10-31T20:06:13;1001.6;;;12.4;100.0
73316;BME280;61545;53.726;-0.444;2022-10-31T20:11:09;1001.2;;;12.4;100.0
73316;BME280;61545;53.726;-0.444;2022-10-31T20:16:10;1001.1;;;12.3;100.0
73316;BME280;61545;53.726;-0.444;2022-10-31T20:21:10;1001.0;;;12.3;100.0
73316;BME280;61545;53.726;-0.444;2022-10-31T20:26:10;1000.6;;;12.1;100.0
73316;BME280;61545;53.726;-0.444;2022-10-31T20:31:10;1000.4;;;12.0;100.0
73316;BME280;61545;53.726;-0.444;2022-10-31T20:36:09;1000.5;;;12.0;100.0
73316;BME280;61545;53.726;-0.444;2022-10-31T20:41:09;1000.4;;;12.1;100.0
73316;BME280;61545;53.726;-0.444;2022-10-31T20:46:10;1000.2;;;12.2;100.0
73316;BME280;61545;53.726;-0.444;2022-10-31T20:51:10;1000.1;;;12.2;100.0
73316;BME280;61545;53.726;-0.444;2022-10-31T20:56:10;999.9;;;12.2;100.0
73316;BME280;61545;53.726;-0.444;2022-10-31T21:01:10;999.7;;;12.3;100.0
73316;BME280;61545;53.726;-0.444;2022-10-31T21:06:09;999.5;;;12.3;100.0
73316;BME280;61545;53.726;-0.444;2022-10-31T21:11:10;999.5;;;12.4;100.0
73316;BME280;61545;53.726;-0.444;2022-10-31T21:16:10;999.4;;;12.5;100.0
73316;BME280;61545;53.726;-0.444;2022-10-31T21:21:10;999.1;;;12.5;100.0
73316;BME280;61545;53.726;-0.444;2022-10-31T21:26:12;999.0;;;12.5;100.0
73316;BME280;61545;53.726;-0.444;2022-10-31T21:31:10;998.8;;;12.5;100.0
73316;BME280;61545;53.726;-0.444;2022-10-31T21:36:09;998.7;;;12.5;100.0
73316;BME280;61545;53.726;-0.444;2022-10-31T21:41:10;998.6;;;12.6;100.0
73316;BME280;61545;53.726;-0.444;2022-10-31T21:46:10;998.4;;;12.5;100.0
73316;BME280;61545;53.726;-0.444;2022-10-31T21:51:10;998.2;;;12.6;100.0
73316;BME280;61545;53.726;-0.444;2022-10-31T21:56:09;998.1;;;12.7;100.0
73316;BME280;61545;53.726;-0.444;2022-10-31T22:01:09;997.9;;;12.7;100.0
73316;BME280;61545;53.726;-0.444;2022-10-31T22:06:10;997.7;;;12.7;100.0
73316;BME280;61545;53.726;-0.444;2022-10-31T22:11:10;997.6;;;12.9;100.0
73316;BME280;61545;53.726;-0.444;2022-10-31T22:16:10;997.5;;;12.9;100.0
73316;BME280;61545;53.726;-0.444;2022-10-31T22:21:10;997.4;;;12.9;100.0
73316;BME280;61545;53.726;-0.444;2022-10-31T22:26:11;997.2;;;12.9;100.0
73316;BME280;61545;53.726;-0.444;2022-10-31T22:31:09;997.0;;;12.9;100.0
73316;BME280;61545;53.726;-0.444;2022-10-31T22:36:10;996.9;;;12.9;100.0
73316;BME280;61545;53.726;-0.444;2022-10-31T22:41:10;996.7;;;12.9;100.0
73316;BME280;61545;53.726;-0.444;2022-10-31T22:46:10;996.7;;;13.0;100.0
73316;BME280;61545;53.726;-0.444;2022-10-31T22:51:10;996.6;;;13.0;100.0
73316;BME280;61545;53.726;-0.444;2022-10-31T22:56:10;996.4;;;13.0;100.0
73316;BME280;61545;53.726;-0.444;2022-10-31T23:01:10;996.2;;;13.0;100.0
73316;BME280;61545;53.726;-0.444;2022-10-31T23:06:10;996.1;;;13.0;100.0
73316;BME280;61545;53.726;-0.444;2022-10-31T23:11:14;995.9;;;12.9;100.0
73316;BME280;61545;53.726;-0.444;2022-10-31T23:16:10;995.7;;;12.9;100.0
73316;BME280;61545;53.726;-0.444;2022-10-31T23:21:09;995.5;;;12.9;100.0
73316;BME280;61545;53.726;-0.444;2022-10-31T23:26:09;995.4;;;12.9;100.0
73316;BME280;61545;53.726;-0.444;2022-10-31T23:31:09;995.3;;;13.0;100.0
73316;BME280;61545;53.726;-0.444;2022-10-31T23:36:09;995.2;;;12.9;100.0
73316;BME280;61545;53.726;-0.444;2022-10-31T23:41:09;995.0;;;12.9;100.0
73316;BME280;61545;53.726;-0.444;2022-10-31T23:46:09;994.8;;;13.0;100.0
73316;BME280;61545;53.726;-0.444;2022-10-31T23:51:09;994.7;;;12.9;100.0
73316;BME280;61545;53.726;-0.444;2022-10-31T23:56:09;994.6;;;12.9;100.0
